sensor_id;sensor_type;location;lat;lon;timestamp;P1;durP1;ratioP1;P2;durP2;ratioP2
73428;SDS011;61643;49.564;17.412;2023-07-28T00:00:02;4.90;;;1.88;;
73428;SDS011;61643;49.564;17.412;2023-07-28T00:02:30;2.53;;;1.70;;
73428;SDS011;61643;49.564;17.412;2023-07-28T00:04:56;1.88;;;1.33;;
73428;SDS011;61643;49.564;17.412;2023-07-28T00:07:22;3.80;;;2.00;;
73428;SDS011;61643;49.564;17.412;2023-07-28T00:09:48;2.35;;;1.65;;
73428;SDS011;61643;49.564;17.412;2023-07-28T00:12:13;2.75;;;1.80;;
73428;SDS011;61643;49.564;17.412;2023-07-28T00:14:39;3.47;;;1.80;;
73428;SDS011;61643;49.564;17.412;2023-07-28T00:17:05;3.03;;;1.65;;
73428;SDS011;61643;49.564;17.412;2023-07-28T00:19:31;2.60;;;1.73;;
73428;SDS011;61643;49.564;17.412;2023-07-28T00:21:57;1.80;;;1.38;;
73428;SDS011;61643;49.564;17.412;2023-07-28T00:24:23;3.20;;;1.75;;
73428;SDS011;61643;49.564;17.412;2023-07-28T00:26:49;2.22;;;1.50;;
73428;SDS011;61643;49.564;17.412;2023-07-28T00:29:15;2.35;;;1.70;;
73428;SDS011;61643;49.564;17.412;2023-07-28T00:31:41;3.63;;;1.70;;
73428;SDS011;61643;49.564;17.412;2023-07-28T00:34:07;3.35;;;1.60;;
73428;SDS011;61643;49.564;17.412;2023-07-28T00:36:33;1.92;;;1.55;;
73428;SDS011;61643;49.564;17.412;2023-07-28T00:38:59;2.83;;;1.60;;
73428;SDS011;61643;49.564;17.412;2023-07-28T00:41:25;2.35;;;1.45;;
73428;SDS011;61643;49.564;17.412;2023-07-28T00:43:51;3.80;;;1.83;;
73428;SDS011;61643;49.564;17.412;2023-07-28T00:46:17;3.70;;;1.52;;
73428;SDS011;61643;49.564;17.412;2023-07-28T00:48:43;3.70;;;1.60;;
73428;SDS011;61643;49.564;17.412;2023-07-28T00:51:10;3.83;;;1.77;;
73428;SDS011;61643;49.564;17.412;2023-07-28T00:53:37;3.08;;;1.75;;
73428;SDS011;61643;49.564;17.412;2023-07-28T00:56:03;2.72;;;1.77;;
73428;SDS011;61643;49.564;17.412;2023-07-28T01:00:56;2.92;;;1.70;;
73428;SDS011;61643;49.564;17.412;2023-07-28T01:03:22;2.45;;;1.70;;
73428;SDS011;61643;49.564;17.412;2023-07-28T01:09:01;2.20;;;1.58;;
73428;SDS011;61643;49.564;17.412;2023-07-28T01:13:54;4.03;;;1.95;;
73428;SDS011;61643;49.564;17.412;2023-07-28T01:16:20;1.75;;;1.55;;
73428;SDS011;61643;49.564;17.412;2023-07-28T01:18:46;3.03;;;1.80;;
73428;SDS011;61643;49.564;17.412;2023-07-28T01:21:14;2.88;;;1.88;;
73428;SDS011;61643;49.564;17.412;2023-07-28T01:23:52;4.43;;;1.80;;
73428;SDS011;61643;49.564;17.412;2023-07-28T01:26:36;2.53;;;1.67;;
73428;SDS011;61643;49.564;17.412;2023-07-28T01:29:03;3.85;;;1.92;;
73428;SDS011;61643;49.564;17.412;2023-07-28T01:31:29;2.97;;;1.75;;
73428;SDS011;61643;49.564;17.412;2023-07-28T01:33:55;5.13;;;1.80;;
73428;SDS011;61643;49.564;17.412;2023-07-28T01:36:21;5.78;;;2.10;;
73428;SDS011;61643;49.564;17.412;2023-07-28T01:38:47;4.65;;;1.95;;
73428;SDS011;61643;49.564;17.412;2023-07-28T01:41:13;2.72;;;1.73;;
73428;SDS011;61643;49.564;17.412;2023-07-28T01:43:39;3.95;;;1.70;;
73428;SDS011;61643;49.564;17.412;2023-07-28T01:46:05;6.65;;;1.90;;
73428;SDS011;61643;49.564;17.412;2023-07-28T01:48:31;3.40;;;1.88;;
73428;SDS011;61643;49.564;17.412;2023-07-28T01:50:57;6.30;;;2.13;;
73428;SDS011;61643;49.564;17.412;2023-07-28T01:53:23;4.63;;;1.75;;
73428;SDS011;61643;49.564;17.412;2023-07-28T01:55:49;3.10;;;1.80;;
73428;SDS011;61643;49.564;17.412;2023-07-28T01:58:15;2.70;;;2.05;;
73428;SDS011;61643;49.564;17.412;2023-07-28T02:00:41;3.90;;;2.15;;
73428;SDS011;61643;49.564;17.412;2023-07-28T02:03:07;3.35;;;2.15;;
73428;SDS011;61643;49.564;17.412;2023-07-28T02:05:33;3.75;;;2.00;;
73428;SDS011;61643;49.564;17.412;2023-07-28T02:07:59;4.15;;;2.15;;
73428;SDS011;61643;49.564;17.412;2023-07-28T02:10:28;3.40;;;2.20;;
73428;SDS011;61643;49.564;17.412;2023-07-28T02:12:54;5.00;;;2.00;;
73428;SDS011;61643;49.564;17.412;2023-07-28T02:15:20;3.30;;;2.17;;
73428;SDS011;61643;49.564;17.412;2023-07-28T02:17:46;4.03;;;2.35;;
73428;SDS011;61643;49.564;17.412;2023-07-28T02:20:12;3.05;;;2.08;;
73428;SDS011;61643;49.564;17.412;2023-07-28T02:22:41;3.00;;;1.80;;
73428;SDS011;61643;49.564;17.412;2023-07-28T02:25:08;3.92;;;2.45;;
73428;SDS011;61643;49.564;17.412;2023-07-28T02:27:35;2.70;;;2.05;;
73428;SDS011;61643;49.564;17.412;2023-07-28T02:30:01;3.40;;;2.13;;
73428;SDS011;61643;49.564;17.412;2023-07-28T02:32:28;3.15;;;2.28;;
73428;SDS011;61643;49.564;17.412;2023-07-28T02:34:54;4.07;;;2.20;;
73428;SDS011;61643;49.564;17.412;2023-07-28T02:37:20;6.65;;;2.20;;
73428;SDS011;61643;49.564;17.412;2023-07-28T02:39:46;6.40;;;2.45;;
73428;SDS011;61643;49.564;17.412;2023-07-28T02:42:12;5.18;;;2.10;;
73428;SDS011;61643;49.564;17.412;2023-07-28T02:44:38;5.55;;;2.47;;
73428;SDS011;61643;49.564;17.412;2023-07-28T02:47:05;4.97;;;2.30;;
73428;SDS011;61643;49.564;17.412;2023-07-28T02:49:31;3.08;;;2.20;;
73428;SDS011;61643;49.564;17.412;2023-07-28T02:51:57;5.00;;;2.22;;
73428;SDS011;61643;49.564;17.412;2023-07-28T02:54:23;3.75;;;2.22;;
73428;SDS011;61643;49.564;17.412;2023-07-28T02:56:50;5.43;;;2.45;;
73428;SDS011;61643;49.564;17.412;2023-07-28T02:59:17;5.20;;;2.63;;
73428;SDS011;61643;49.564;17.412;2023-07-28T03:01:43;4.80;;;2.30;;
73428;SDS011;61643;49.564;17.412;2023-07-28T03:04:09;4.32;;;2.65;;
73428;SDS011;61643;49.564;17.412;2023-07-28T03:06:35;4.15;;;2.42;;
73428;SDS011;61643;49.564;17.412;2023-07-28T03:09:01;3.80;;;2.33;;
73428;SDS011;61643;49.564;17.412;2023-07-28T03:11:27;4.72;;;2.45;;
73428;SDS011;61643;49.564;17.412;2023-07-28T03:13:53;3.83;;;2.30;;
73428;SDS011;61643;49.564;17.412;2023-07-28T03:16:19;3.15;;;2.35;;
73428;SDS011;61643;49.564;17.412;2023-07-28T03:18:45;3.92;;;2.08;;
73428;SDS011;61643;49.564;17.412;2023-07-28T03:21:11;5.45;;;2.38;;
73428;SDS011;61643;49.564;17.412;2023-07-28T03:23:37;2.83;;;1.92;;
73428;SDS011;61643;49.564;17.412;2023-07-28T03:26:03;6.07;;;2.40;;
73428;SDS011;61643;49.564;17.412;2023-07-28T03:28:29;5.18;;;2.67;;
73428;SDS011;61643;49.564;17.412;2023-07-28T03:30:55;7.47;;;2.90;;
73428;SDS011;61643;49.564;17.412;2023-07-28T03:33:21;4.32;;;2.70;;
73428;SDS011;61643;49.564;17.412;2023-07-28T03:35:47;3.97;;;2.60;;
73428;SDS011;61643;49.564;17.412;2023-07-28T03:38:13;3.22;;;2.60;;
73428;SDS011;61643;49.564;17.412;2023-07-28T03:40:39;5.15;;;2.75;;
73428;SDS011;61643;49.564;17.412;2023-07-28T03:43:05;5.63;;;2.83;;
73428;SDS011;61643;49.564;17.412;2023-07-28T03:45:31;3.47;;;2.50;;
73428;SDS011;61643;49.564;17.412;2023-07-28T03:47:57;5.18;;;2.60;;
73428;SDS011;61643;49.564;17.412;2023-07-28T03:50:23;3.95;;;2.60;;
73428;SDS011;61643;49.564;17.412;2023-07-28T03:52:50;4.20;;;2.70;;
73428;SDS011;61643;49.564;17.412;2023-07-28T03:55:16;3.90;;;2.85;;
73428;SDS011;61643;49.564;17.412;2023-07-28T03:57:41;4.32;;;2.95;;
73428;SDS011;61643;49.564;17.412;2023-07-28T04:00:08;3.47;;;2.55;;
73428;SDS011;61643;49.564;17.412;2023-07-28T04:02:34;4.75;;;2.90;;
73428;SDS011;61643;49.564;17.412;2023-07-28T04:05:00;5.40;;;2.75;;
73428;SDS011;61643;49.564;17.412;2023-07-28T04:07:26;5.10;;;2.88;;
73428;SDS011;61643;49.564;17.412;2023-07-28T04:09:52;3.95;;;2.50;;
73428;SDS011;61643;49.564;17.412;2023-07-28T04:12:21;4.95;;;2.47;;
73428;SDS011;61643;49.564;17.412;2023-07-28T04:14:47;5.88;;;2.67;;
73428;SDS011;61643;49.564;17.412;2023-07-28T04:17:13;3.20;;;2.10;;
73428;SDS011;61643;49.564;17.412;2023-07-28T04:19:39;4.32;;;2.55;;
73428;SDS011;61643;49.564;17.412;2023-07-28T04:22:05;3.70;;;2.50;;
73428;SDS011;61643;49.564;17.412;2023-07-28T04:24:31;3.97;;;2.40;;
73428;SDS011;61643;49.564;17.412;2023-07-28T04:26:57;4.93;;;2.88;;
73428;SDS011;61643;49.564;17.412;2023-07-28T04:29:23;6.20;;;2.72;;
73428;SDS011;61643;49.564;17.412;2023-07-28T04:31:49;5.60;;;2.60;;
73428;SDS011;61643;49.564;17.412;2023-07-28T04:34:15;4.22;;;2.50;;
73428;SDS011;61643;49.564;17.412;2023-07-28T04:36:41;4.03;;;2.63;;
73428;SDS011;61643;49.564;17.412;2023-07-28T04:39:07;3.63;;;2.53;;
73428;SDS011;61643;49.564;17.412;2023-07-28T04:41:33;4.70;;;2.22;;
73428;SDS011;61643;49.564;17.412;2023-07-28T04:43:59;4.78;;;2.47;;
73428;SDS011;61643;49.564;17.412;2023-07-28T04:46:25;4.72;;;2.78;;
73428;SDS011;61643;49.564;17.412;2023-07-28T04:48:53;4.10;;;2.63;;
73428;SDS011;61643;49.564;17.412;2023-07-28T04:51:20;3.65;;;2.30;;
73428;SDS011;61643;49.564;17.412;2023-07-28T04:53:45;3.97;;;2.33;;
73428;SDS011;61643;49.564;17.412;2023-07-28T04:56:11;5.00;;;2.63;;
73428;SDS011;61643;49.564;17.412;2023-07-28T04:58:37;3.33;;;2.42;;
73428;SDS011;61643;49.564;17.412;2023-07-28T05:01:03;3.80;;;2.50;;
73428;SDS011;61643;49.564;17.412;2023-07-28T05:03:30;4.00;;;2.50;;
73428;SDS011;61643;49.564;17.412;2023-07-28T05:05:56;4.18;;;2.55;;
73428;SDS011;61643;49.564;17.412;2023-07-28T05:08:22;3.20;;;2.30;;
73428;SDS011;61643;49.564;17.412;2023-07-28T05:10:48;3.95;;;2.60;;
73428;SDS011;61643;49.564;17.412;2023-07-28T05:13:14;4.60;;;2.72;;
73428;SDS011;61643;49.564;17.412;2023-07-28T05:15:40;4.53;;;2.40;;
73428;SDS011;61643;49.564;17.412;2023-07-28T05:18:06;3.25;;;2.65;;
73428;SDS011;61643;49.564;17.412;2023-07-28T05:20:32;5.32;;;2.72;;
73428;SDS011;61643;49.564;17.412;2023-07-28T05:22:58;3.83;;;2.38;;
73428;SDS011;61643;49.564;17.412;2023-07-28T05:25:24;3.30;;;2.20;;
73428;SDS011;61643;49.564;17.412;2023-07-28T05:27:50;7.15;;;2.88;;
73428;SDS011;61643;49.564;17.412;2023-07-28T05:30:16;5.53;;;2.75;;
73428;SDS011;61643;49.564;17.412;2023-07-28T05:32:42;4.22;;;2.78;;
73428;SDS011;61643;49.564;17.412;2023-07-28T05:35:08;4.47;;;2.95;;
73428;SDS011;61643;49.564;17.412;2023-07-28T05:37:34;7.10;;;2.60;;
73428;SDS011;61643;49.564;17.412;2023-07-28T05:40:00;3.60;;;2.35;;
73428;SDS011;61643;49.564;17.412;2023-07-28T05:42:26;3.45;;;2.60;;
73428;SDS011;61643;49.564;17.412;2023-07-28T05:44:52;4.45;;;3.03;;
73428;SDS011;61643;49.564;17.412;2023-07-28T05:47:20;4.10;;;2.55;;
73428;SDS011;61643;49.564;17.412;2023-07-28T05:49:46;4.25;;;2.45;;
73428;SDS011;61643;49.564;17.412;2023-07-28T05:52:12;4.00;;;2.95;;
73428;SDS011;61643;49.564;17.412;2023-07-28T05:54:38;4.45;;;2.65;;
73428;SDS011;61643;49.564;17.412;2023-07-28T05:57:04;3.72;;;2.97;;
73428;SDS011;61643;49.564;17.412;2023-07-28T05:59:30;5.75;;;3.15;;
73428;SDS011;61643;49.564;17.412;2023-07-28T06:01:56;6.68;;;3.40;;
73428;SDS011;61643;49.564;17.412;2023-07-28T06:04:22;9.15;;;4.13;;
73428;SDS011;61643;49.564;17.412;2023-07-28T06:06:48;6.05;;;3.55;;
73428;SDS011;61643;49.564;17.412;2023-07-28T06:09:14;11.85;;;4.38;;
73428;SDS011;61643;49.564;17.412;2023-07-28T06:11:40;3.92;;;3.08;;
73428;SDS011;61643;49.564;17.412;2023-07-28T06:14:06;7.47;;;3.30;;
73428;SDS011;61643;49.564;17.412;2023-07-28T06:16:32;5.38;;;3.47;;
73428;SDS011;61643;49.564;17.412;2023-07-28T06:18:58;6.03;;;3.80;;
73428;SDS011;61643;49.564;17.412;2023-07-28T06:21:24;6.18;;;3.67;;
73428;SDS011;61643;49.564;17.412;2023-07-28T06:23:50;9.57;;;3.65;;
73428;SDS011;61643;49.564;17.412;2023-07-28T06:26:16;6.13;;;3.40;;
73428;SDS011;61643;49.564;17.412;2023-07-28T06:28:42;5.68;;;3.60;;
73428;SDS011;61643;49.564;17.412;2023-07-28T06:31:08;6.50;;;3.72;;
73428;SDS011;61643;49.564;17.412;2023-07-28T06:33:35;6.90;;;3.67;;
73428;SDS011;61643;49.564;17.412;2023-07-28T06:36:02;6.13;;;3.47;;
73428;SDS011;61643;49.564;17.412;2023-07-28T06:38:34;6.15;;;3.55;;
73428;SDS011;61643;49.564;17.412;2023-07-28T06:41:00;7.38;;;4.20;;
73428;SDS011;61643;49.564;17.412;2023-07-28T06:43:26;9.68;;;4.38;;
73428;SDS011;61643;49.564;17.412;2023-07-28T06:45:52;10.07;;;4.22;;
73428;SDS011;61643;49.564;17.412;2023-07-28T06:48:19;13.30;;;4.45;;
73428;SDS011;61643;49.564;17.412;2023-07-28T06:50:45;7.15;;;4.05;;
73428;SDS011;61643;49.564;17.412;2023-07-28T06:53:11;9.25;;;4.75;;
73428;SDS011;61643;49.564;17.412;2023-07-28T06:55:37;7.65;;;4.40;;
73428;SDS011;61643;49.564;17.412;2023-07-28T06:58:05;7.03;;;4.40;;
73428;SDS011;61643;49.564;17.412;2023-07-28T07:00:32;7.25;;;4.43;;
73428;SDS011;61643;49.564;17.412;2023-07-28T07:02:57;8.30;;;3.53;;
73428;SDS011;61643;49.564;17.412;2023-07-28T07:05:23;5.65;;;3.50;;
73428;SDS011;61643;49.564;17.412;2023-07-28T07:07:49;6.43;;;3.95;;
73428;SDS011;61643;49.564;17.412;2023-07-28T07:10:16;9.45;;;3.92;;
73428;SDS011;61643;49.564;17.412;2023-07-28T07:12:42;4.28;;;3.28;;
73428;SDS011;61643;49.564;17.412;2023-07-28T07:15:08;7.13;;;3.75;;
73428;SDS011;61643;49.564;17.412;2023-07-28T07:17:35;6.40;;;3.38;;
73428;SDS011;61643;49.564;17.412;2023-07-28T07:20:01;6.10;;;3.70;;
73428;SDS011;61643;49.564;17.412;2023-07-28T07:22:27;7.32;;;3.58;;
73428;SDS011;61643;49.564;17.412;2023-07-28T07:24:53;7.35;;;4.05;;
73428;SDS011;61643;49.564;17.412;2023-07-28T07:27:23;7.07;;;3.67;;
73428;SDS011;61643;49.564;17.412;2023-07-28T07:29:49;5.68;;;3.28;;
73428;SDS011;61643;49.564;17.412;2023-07-28T07:32:16;7.43;;;4.82;;
73428;SDS011;61643;49.564;17.412;2023-07-28T07:34:42;18.65;;;14.18;;
73428;SDS011;61643;49.564;17.412;2023-07-28T07:37:09;24.25;;;20.75;;
73428;SDS011;61643;49.564;17.412;2023-07-28T07:39:35;11.32;;;8.60;;
73428;SDS011;61643;49.564;17.412;2023-07-28T07:42:02;16.40;;;12.30;;
73428;SDS011;61643;49.564;17.412;2023-07-28T07:44:28;10.63;;;5.63;;
73428;SDS011;61643;49.564;17.412;2023-07-28T07:46:54;7.25;;;4.30;;
73428;SDS011;61643;49.564;17.412;2023-07-28T07:49:21;6.80;;;3.60;;
73428;SDS011;61643;49.564;17.412;2023-07-28T07:51:48;7.07;;;3.58;;
73428;SDS011;61643;49.564;17.412;2023-07-28T07:54:14;6.00;;;3.55;;
73428;SDS011;61643;49.564;17.412;2023-07-28T07:56:44;5.45;;;3.38;;
73428;SDS011;61643;49.564;17.412;2023-07-28T07:59:12;6.50;;;3.08;;
73428;SDS011;61643;49.564;17.412;2023-07-28T08:01:38;4.25;;;3.10;;
73428;SDS011;61643;49.564;17.412;2023-07-28T08:04:04;4.63;;;2.53;;
73428;SDS011;61643;49.564;17.412;2023-07-28T08:06:30;4.35;;;2.47;;
73428;SDS011;61643;49.564;17.412;2023-07-28T08:08:56;4.72;;;2.42;;
73428;SDS011;61643;49.564;17.412;2023-07-28T08:11:24;4.45;;;2.85;;
73428;SDS011;61643;49.564;17.412;2023-07-28T08:13:50;5.32;;;2.97;;
73428;SDS011;61643;49.564;17.412;2023-07-28T08:16:16;4.97;;;3.03;;
73428;SDS011;61643;49.564;17.412;2023-07-28T08:18:42;5.32;;;3.20;;
73428;SDS011;61643;49.564;17.412;2023-07-28T08:21:08;6.20;;;3.28;;
73428;SDS011;61643;49.564;17.412;2023-07-28T08:23:35;3.95;;;2.78;;
73428;SDS011;61643;49.564;17.412;2023-07-28T08:26:01;4.05;;;2.65;;
73428;SDS011;61643;49.564;17.412;2023-07-28T08:28:27;3.67;;;2.70;;
73428;SDS011;61643;49.564;17.412;2023-07-28T08:30:54;3.22;;;2.58;;
73428;SDS011;61643;49.564;17.412;2023-07-28T08:33:24;3.65;;;2.30;;
73428;SDS011;61643;49.564;17.412;2023-07-28T08:35:50;4.10;;;2.80;;
73428;SDS011;61643;49.564;17.412;2023-07-28T08:38:16;3.72;;;2.65;;
73428;SDS011;61643;49.564;17.412;2023-07-28T08:40:45;5.68;;;2.60;;
73428;SDS011;61643;49.564;17.412;2023-07-28T08:43:11;4.15;;;2.53;;
73428;SDS011;61643;49.564;17.412;2023-07-28T08:45:37;4.18;;;2.60;;
73428;SDS011;61643;49.564;17.412;2023-07-28T08:48:04;4.05;;;2.80;;
73428;SDS011;61643;49.564;17.412;2023-07-28T08:50:30;3.03;;;2.28;;
73428;SDS011;61643;49.564;17.412;2023-07-28T08:52:57;7.60;;;2.92;;
73428;SDS011;61643;49.564;17.412;2023-07-28T08:55:23;5.80;;;2.60;;
73428;SDS011;61643;49.564;17.412;2023-07-28T08:57:49;6.30;;;2.60;;
73428;SDS011;61643;49.564;17.412;2023-07-28T09:00:15;4.80;;;2.78;;
73428;SDS011;61643;49.564;17.412;2023-07-28T09:02:43;5.90;;;3.20;;
73428;SDS011;61643;49.564;17.412;2023-07-28T09:05:19;5.75;;;3.15;;
73428;SDS011;61643;49.564;17.412;2023-07-28T09:07:46;6.18;;;3.72;;
73428;SDS011;61643;49.564;17.412;2023-07-28T09:10:13;6.90;;;3.40;;
73428;SDS011;61643;49.564;17.412;2023-07-28T09:12:47;5.60;;;3.10;;
73428;SDS011;61643;49.564;17.412;2023-07-28T09:15:14;7.82;;;3.50;;
73428;SDS011;61643;49.564;17.412;2023-07-28T09:17:42;6.35;;;3.25;;
73428;SDS011;61643;49.564;17.412;2023-07-28T09:20:15;6.82;;;3.90;;
73428;SDS011;61643;49.564;17.412;2023-07-28T09:22:42;7.50;;;3.47;;
73428;SDS011;61643;49.564;17.412;2023-07-28T09:25:12;3.65;;;2.75;;
73428;SDS011;61643;49.564;17.412;2023-07-28T09:27:40;4.50;;;2.20;;
73428;SDS011;61643;49.564;17.412;2023-07-28T09:30:06;2.97;;;2.20;;
73428;SDS011;61643;49.564;17.412;2023-07-28T09:32:33;2.88;;;2.00;;
73428;SDS011;61643;49.564;17.412;2023-07-28T09:35:10;2.60;;;2.05;;
73428;SDS011;61643;49.564;17.412;2023-07-28T09:37:39;2.63;;;1.90;;
73428;SDS011;61643;49.564;17.412;2023-07-28T09:40:09;6.40;;;2.53;;
73428;SDS011;61643;49.564;17.412;2023-07-28T09:42:40;2.58;;;1.90;;
73428;SDS011;61643;49.564;17.412;2023-07-28T09:45:08;2.85;;;2.05;;
73428;SDS011;61643;49.564;17.412;2023-07-28T09:50:02;3.05;;;2.00;;
73428;SDS011;61643;49.564;17.412;2023-07-28T09:52:37;3.10;;;1.95;;
73428;SDS011;61643;49.564;17.412;2023-07-28T09:55:08;2.58;;;2.13;;
73428;SDS011;61643;49.564;17.412;2023-07-28T09:57:39;3.53;;;2.00;;
73428;SDS011;61643;49.564;17.412;2023-07-28T10:00:10;5.25;;;2.28;;
73428;SDS011;61643;49.564;17.412;2023-07-28T10:02:38;3.25;;;1.98;;
73428;SDS011;61643;49.564;17.412;2023-07-28T10:05:05;2.55;;;2.08;;
73428;SDS011;61643;49.564;17.412;2023-07-28T10:07:38;4.22;;;2.35;;
73428;SDS011;61643;49.564;17.412;2023-07-28T10:10:06;3.08;;;2.10;;
73428;SDS011;61643;49.564;17.412;2023-07-28T10:12:42;4.97;;;2.25;;
73428;SDS011;61643;49.564;17.412;2023-07-28T10:15:19;8.82;;;3.58;;
73428;SDS011;61643;49.564;17.412;2023-07-28T10:17:54;9.20;;;5.18;;
73428;SDS011;61643;49.564;17.412;2023-07-28T10:23:07;8.10;;;4.70;;
73428;SDS011;61643;49.564;17.412;2023-07-28T10:25:55;5.88;;;3.83;;
73428;SDS011;61643;49.564;17.412;2023-07-28T10:30:53;3.90;;;3.05;;
73428;SDS011;61643;49.564;17.412;2023-07-28T10:33:26;3.97;;;3.00;;
73428;SDS011;61643;49.564;17.412;2023-07-28T10:35:54;2.92;;;2.60;;
73428;SDS011;61643;49.564;17.412;2023-07-28T10:38:33;3.67;;;3.05;;
73428;SDS011;61643;49.564;17.412;2023-07-28T10:41:13;4.53;;;3.00;;
73428;SDS011;61643;49.564;17.412;2023-07-28T10:43:41;3.70;;;2.47;;
73428;SDS011;61643;49.564;17.412;2023-07-28T10:46:09;5.65;;;2.67;;
73428;SDS011;61643;49.564;17.412;2023-07-28T10:48:36;3.28;;;2.72;;
73428;SDS011;61643;49.564;17.412;2023-07-28T10:51:06;6.57;;;3.25;;
73428;SDS011;61643;49.564;17.412;2023-07-28T10:53:32;3.92;;;3.15;;
73428;SDS011;61643;49.564;17.412;2023-07-28T10:56:00;4.78;;;3.00;;
73428;SDS011;61643;49.564;17.412;2023-07-28T10:58:27;4.63;;;3.05;;
73428;SDS011;61643;49.564;17.412;2023-07-28T11:00:53;5.68;;;3.58;;
73428;SDS011;61643;49.564;17.412;2023-07-28T11:03:19;6.22;;;3.35;;
73428;SDS011;61643;49.564;17.412;2023-07-28T11:05:45;5.82;;;3.17;;
73428;SDS011;61643;49.564;17.412;2023-07-28T11:08:14;4.20;;;2.97;;
73428;SDS011;61643;49.564;17.412;2023-07-28T11:10:40;5.18;;;3.15;;
73428;SDS011;61643;49.564;17.412;2023-07-28T11:13:07;3.35;;;2.50;;
73428;SDS011;61643;49.564;17.412;2023-07-28T11:15:33;5.53;;;3.17;;
73428;SDS011;61643;49.564;17.412;2023-07-28T11:17:59;4.18;;;2.80;;
73428;SDS011;61643;49.564;17.412;2023-07-28T11:20:26;4.05;;;2.53;;
73428;SDS011;61643;49.564;17.412;2023-07-28T11:22:56;5.00;;;2.55;;
73428;SDS011;61643;49.564;17.412;2023-07-28T11:25:25;5.03;;;2.55;;
73428;SDS011;61643;49.564;17.412;2023-07-28T11:27:52;4.43;;;2.10;;
73428;SDS011;61643;49.564;17.412;2023-07-28T11:30:19;2.72;;;2.30;;
73428;SDS011;61643;49.564;17.412;2023-07-28T11:32:46;3.78;;;2.38;;
73428;SDS011;61643;49.564;17.412;2023-07-28T11:35:15;4.40;;;2.50;;
73428;SDS011;61643;49.564;17.412;2023-07-28T11:40:11;3.38;;;2.45;;
73428;SDS011;61643;49.564;17.412;2023-07-28T11:42:38;4.85;;;2.33;;
73428;SDS011;61643;49.564;17.412;2023-07-28T11:45:12;7.13;;;2.22;;
73428;SDS011;61643;49.564;17.412;2023-07-28T11:50:05;2.50;;;1.42;;
73428;SDS011;61643;49.564;17.412;2023-07-28T11:52:34;2.70;;;1.60;;
73428;SDS011;61643;49.564;17.412;2023-07-28T11:55:03;2.10;;;1.30;;
73428;SDS011;61643;49.564;17.412;2023-07-28T11:57:30;1.85;;;1.33;;
73428;SDS011;61643;49.564;17.412;2023-07-28T11:59:57;2.47;;;1.42;;
73428;SDS011;61643;49.564;17.412;2023-07-28T12:02:26;3.38;;;1.20;;
73428;SDS011;61643;49.564;17.412;2023-07-28T12:04:53;1.50;;;1.35;;
73428;SDS011;61643;49.564;17.412;2023-07-28T12:07:27;1.20;;;1.10;;
73428;SDS011;61643;49.564;17.412;2023-07-28T12:09:55;1.25;;;1.02;;
73428;SDS011;61643;49.564;17.412;2023-07-28T12:12:26;1.98;;;1.15;;
73428;SDS011;61643;49.564;17.412;2023-07-28T12:14:54;1.23;;;1.08;;
73428;SDS011;61643;49.564;17.412;2023-07-28T12:17:22;1.55;;;1.05;;
73428;SDS011;61643;49.564;17.412;2023-07-28T12:19:58;1.70;;;1.30;;
73428;SDS011;61643;49.564;17.412;2023-07-28T12:22:40;1.45;;;1.35;;
73428;SDS011;61643;49.564;17.412;2023-07-28T12:25:07;2.20;;;1.20;;
73428;SDS011;61643;49.564;17.412;2023-07-28T12:27:34;1.13;;;1.02;;
73428;SDS011;61643;49.564;17.412;2023-07-28T12:30:01;1.65;;;1.20;;
73428;SDS011;61643;49.564;17.412;2023-07-28T12:32:28;1.90;;;1.13;;
73428;SDS011;61643;49.564;17.412;2023-07-28T12:34:54;2.15;;;1.35;;
73428;SDS011;61643;49.564;17.412;2023-07-28T12:37:20;5.68;;;1.95;;
73428;SDS011;61643;49.564;17.412;2023-07-28T12:39:46;4.07;;;2.22;;
73428;SDS011;61643;49.564;17.412;2023-07-28T12:42:13;4.57;;;1.88;;
73428;SDS011;61643;49.564;17.412;2023-07-28T12:44:40;5.13;;;2.22;;
73428;SDS011;61643;49.564;17.412;2023-07-28T12:47:07;2.85;;;2.13;;
73428;SDS011;61643;49.564;17.412;2023-07-28T12:49:33;6.80;;;2.67;;
73428;SDS011;61643;49.564;17.412;2023-07-28T12:52:04;5.47;;;2.17;;
73428;SDS011;61643;49.564;17.412;2023-07-28T12:54:34;3.08;;;2.10;;
73428;SDS011;61643;49.564;17.412;2023-07-28T12:57:01;3.45;;;2.13;;
73428;SDS011;61643;49.564;17.412;2023-07-28T12:59:27;2.78;;;2.25;;
73428;SDS011;61643;49.564;17.412;2023-07-28T13:01:55;4.68;;;2.10;;
73428;SDS011;61643;49.564;17.412;2023-07-28T13:04:21;3.25;;;2.40;;
73428;SDS011;61643;49.564;17.412;2023-07-28T13:06:47;2.97;;;2.30;;
73428;SDS011;61643;49.564;17.412;2023-07-28T13:09:13;2.78;;;2.03;;
73428;SDS011;61643;49.564;17.412;2023-07-28T13:11:39;3.58;;;2.47;;
73428;SDS011;61643;49.564;17.412;2023-07-28T13:14:05;3.60;;;1.77;;
73428;SDS011;61643;49.564;17.412;2023-07-28T13:16:31;2.20;;;1.60;;
73428;SDS011;61643;49.564;17.412;2023-07-28T13:18:57;2.55;;;1.70;;
73428;SDS011;61643;49.564;17.412;2023-07-28T13:21:25;2.78;;;1.45;;
73428;SDS011;61643;49.564;17.412;2023-07-28T13:23:51;2.72;;;1.60;;
73428;SDS011;61643;49.564;17.412;2023-07-28T13:26:17;3.60;;;1.80;;
73428;SDS011;61643;49.564;17.412;2023-07-28T13:28:43;1.75;;;1.48;;
73428;SDS011;61643;49.564;17.412;2023-07-28T13:31:12;1.63;;;1.40;;
73428;SDS011;61643;49.564;17.412;2023-07-28T13:33:39;2.17;;;1.60;;
73428;SDS011;61643;49.564;17.412;2023-07-28T13:36:05;3.17;;;1.10;;
73428;SDS011;61643;49.564;17.412;2023-07-28T13:38:33;1.77;;;1.23;;
73428;SDS011;61643;49.564;17.412;2023-07-28T13:41:00;1.63;;;1.52;;
73428;SDS011;61643;49.564;17.412;2023-07-28T13:43:27;1.70;;;1.40;;
73428;SDS011;61643;49.564;17.412;2023-07-28T13:45:53;2.05;;;1.60;;
73428;SDS011;61643;49.564;17.412;2023-07-28T13:48:19;2.22;;;1.48;;
73428;SDS011;61643;49.564;17.412;2023-07-28T13:50:45;2.88;;;1.67;;
73428;SDS011;61643;49.564;17.412;2023-07-28T13:53:11;4.07;;;1.90;;
73428;SDS011;61643;49.564;17.412;2023-07-28T13:55:37;2.97;;;2.00;;
73428;SDS011;61643;49.564;17.412;2023-07-28T13:58:04;1.67;;;1.52;;
73428;SDS011;61643;49.564;17.412;2023-07-28T14:00:32;1.88;;;1.65;;
73428;SDS011;61643;49.564;17.412;2023-07-28T14:02:58;1.75;;;1.45;;
73428;SDS011;61643;49.564;17.412;2023-07-28T14:05:24;1.90;;;1.42;;
73428;SDS011;61643;49.564;17.412;2023-07-28T14:07:50;1.40;;;1.30;;
73428;SDS011;61643;49.564;17.412;2023-07-28T14:10:16;1.40;;;1.30;;
73428;SDS011;61643;49.564;17.412;2023-07-28T14:12:42;2.75;;;1.50;;
73428;SDS011;61643;49.564;17.412;2023-07-28T14:15:08;1.73;;;1.60;;
73428;SDS011;61643;49.564;17.412;2023-07-28T14:17:34;3.85;;;1.55;;
73428;SDS011;61643;49.564;17.412;2023-07-28T14:20:00;2.05;;;1.75;;
73428;SDS011;61643;49.564;17.412;2023-07-28T14:22:26;2.80;;;1.92;;
73428;SDS011;61643;49.564;17.412;2023-07-28T14:24:52;2.30;;;1.77;;
73428;SDS011;61643;49.564;17.412;2023-07-28T14:27:18;1.80;;;1.65;;
73428;SDS011;61643;49.564;17.412;2023-07-28T14:29:44;2.85;;;1.42;;
73428;SDS011;61643;49.564;17.412;2023-07-28T14:32:10;1.85;;;1.60;;
73428;SDS011;61643;49.564;17.412;2023-07-28T14:34:36;1.70;;;1.60;;
73428;SDS011;61643;49.564;17.412;2023-07-28T14:37:03;2.67;;;1.83;;
73428;SDS011;61643;49.564;17.412;2023-07-28T14:39:33;2.45;;;1.60;;
73428;SDS011;61643;49.564;17.412;2023-07-28T14:41:59;1.92;;;1.55;;
73428;SDS011;61643;49.564;17.412;2023-07-28T14:44:25;2.80;;;1.85;;
73428;SDS011;61643;49.564;17.412;2023-07-28T14:46:51;2.78;;;1.80;;
73428;SDS011;61643;49.564;17.412;2023-07-28T14:49:17;3.95;;;1.92;;
73428;SDS011;61643;49.564;17.412;2023-07-28T14:51:43;2.83;;;1.45;;